Time;durP1;ratioP1;P1;durP2;ratioP2;P2;SDS_P1;SDS_P2;PMS_P1;PMS_P2;Temp;Humidity;BMP_temperature;BMP_pressure;BME280_temperature;BME280_humidity;BME280_pressure;Samples;Min_cycle;Max_cycle;Signal;HPM_P1;HPM_P2
2022/03/30 00:00:56;;;;;;;22.45;15.10;;;13.40;52.20;;;;;;5035925;28;20045;-90
2022/03/30 00:03:23;;;;;;;23.48;15.50;;;13.30;52.10;;;;;;5019577;28;20054;-90
2022/03/30 00:05:50;;;;;;;25.90;17.90;;;13.30;53.20;;;;;;5021152;28;20055;-91
2022/03/30 00:08:17;;;;;;;24.75;16.77;;;13.50;52.80;;;;;;5028255;28;20117;-91
2022/03/30 00:10:44;;;;;;;26.00;16.88;;;13.40;53.00;;;;;;5032021;28;20471;-90
2022/03/30 00:13:11;;;;;;;27.70;17.83;;;13.40;53.00;;;;;;5031274;28;20470;-91
2022/03/30 00:15:38;;;;;;;24.58;16.27;;;13.50;53.20;;;;;;5029069;28;20601;-90
2022/03/30 00:18:05;;;;;;;25.10;16.80;;;13.30;53.10;;;;;;5045612;28;20072;-91
2022/03/30 00:20:32;;;;;;;24.15;16.77;;;13.30;53.10;;;;;;5036006;28;20127;-91
2022/03/30 00:22:59;;;;;;;23.80;16.65;;;13.20;53.10;;;;;;5046019;28;20478;-90
2022/03/30 00:25:26;;;;;;;27.38;17.35;;;13.40;53.30;;;;;;5034176;28;20053;-92
2022/03/30 00:27:54;;;;;;;28.65;17.65;;;13.20;53.20;;;;;;5035607;28;20076;-90
2022/03/30 00:30:21;;;;;;;24.83;17.33;;;13.40;53.50;;;;;;5039210;28;20046;-90
2022/03/30 00:32:48;;;;;;;23.60;16.38;;;13.40;53.60;;;;;;5008853;28;20064;-90
2022/03/30 00:35:16;;;;;;;26.40;17.67;;;13.40;53.70;;;;;;5031548;28;20622;-91
2022/03/30 00:37:43;;;;;;;24.63;16.38;;;13.10;53.40;;;;;;5031657;28;20571;-90
2022/03/30 00:40:13;;;;;;;23.73;16.40;;;13.40;53.50;;;;;;5031589;28;20088;-90
2022/03/30 00:42:40;;;;;;;24.25;17.00;;;13.10;53.20;;;;;;5023911;28;20050;-91
2022/03/30 00:45:21;;;;;;;29.77;16.98;;;13.10;53.20;;;;;;5015236;28;20076;-90
2022/03/30 00:47:49;;;;;;;28.60;17.20;;;13.10;53.30;;;;;;5031549;28;20120;-92
2022/03/30 00:50:18;;;;;;;31.88;18.30;;;13.30;53.30;;;;;;5010641;28;20049;-90
2022/03/30 00:52:47;;;;;;;31.60;18.23;;;13.30;53.20;;;;;;5004467;28;20515;-89
2022/03/30 00:55:16;;;;;;;27.33;17.90;;;13.00;53.00;;;;;;5042603;28;20487;-90
2022/03/30 00:57:46;;;;;;;27.55;17.77;;;13.00;53.10;;;;;;5034982;28;20104;-91
2022/03/30 01:00:15;;;;;;;25.80;16.63;;;13.20;53.10;;;;;;5026921;28;20053;-90
2022/03/30 01:02:44;;;;;;;24.60;16.63;;;13.00;53.00;;;;;;5042739;28;20049;-91
2022/03/30 01:05:12;;;;;;;29.15;17.15;;;13.00;53.00;;;;;;5031390;28;20050;-90
2022/03/30 01:07:40;;;;;;;26.83;16.90;;;13.20;53.10;;;;;;5029945;28;20050;-89
2022/03/30 01:10:08;;;;;;;25.23;15.77;;;13.20;53.70;;;;;;5045932;28;20045;-89
2022/03/30 01:12:39;;;;;;;25.98;16.42;;;13.00;52.90;;;;;;5016608;28;20057;-91
2022/03/30 01:15:12;;;;;;;27.63;17.10;;;12.90;52.90;;;;;;5033646;28;20059;-91
2022/03/30 01:17:40;;;;;;;23.30;15.32;;;13.10;53.10;;;;;;5021254;28;20052;-89
2022/03/30 01:20:10;;;;;;;26.98;16.35;;;12.90;53.00;;;;;;5011203;28;20050;-90
2022/03/30 01:22:38;;;;;;;25.58;16.27;;;12.90;53.00;;;;;;5010766;28;20047;-90
2022/03/30 01:25:06;;;;;;;24.90;14.95;;;12.90;53.00;;;;;;5010503;28;20113;-90
2022/03/30 01:27:33;;;;;;;23.23;16.23;;;12.90;53.10;;;;;;5037461;28;20054;-90
2022/03/30 01:33:00;;;;;;;23.00;15.00;;;12.80;53.40;;;;;;5050152;28;20111;-91
2022/03/30 01:35:26;;;;;;;25.42;15.25;;;13.10;53.30;;;;;;5049538;28;20049;-89
2022/03/30 01:37:53;;;;;;;28.25;17.02;;;12.80;53.40;;;;;;5036403;28;20038;-90
2022/03/30 01:40:21;;;;;;;26.80;14.95;;;12.80;53.30;;;;;;5030601;28;20060;-89
2022/03/30 01:42:48;;;;;;;27.77;15.48;;;13.00;53.20;;;;;;5030817;28;20052;-89
2022/03/30 01:45:16;;;;;;;26.08;16.40;;;12.80;53.20;;;;;;5013023;28;20049;-88
2022/03/30 01:47:54;;;;;;;25.17;16.00;;;12.70;53.40;;;;;;5035344;28;20041;-90
2022/03/30 01:50:22;;;;;;;23.05;15.18;;;12.70;53.60;;;;;;5030559;28;20037;-90
2022/03/30 01:52:49;;;;;;;26.38;14.88;;;12.90;53.50;;;;;;5033691;28;20057;-89
2022/03/30 01:55:18;;;;;;;28.45;14.52;;;12.70;53.40;;;;;;5030398;28;20061;-89
2022/03/30 01:57:45;;;;;;;24.92;15.60;;;12.90;53.50;;;;;;5030106;28;20054;-90
2022/03/30 02:00:15;;;;;;;23.42;15.15;;;12.80;53.50;;;;;;5030155;28;20061;-89
2022/03/30 02:02:42;;;;;;;25.38;16.13;;;12.60;53.40;;;;;;5029887;28;20096;-90
2022/03/30 02:05:10;;;;;;;23.73;13.82;;;12.70;53.50;;;;;;5025286;28;20266;-90
2022/03/30 02:07:39;;;;;;;23.40;15.25;;;12.60;53.50;;;;;;4997809;28;20073;-90
2022/03/30 02:10:08;;;;;;;25.92;15.27;;;12.60;53.40;;;;;;5032979;28;20048;-89
2022/03/30 02:12:36;;;;;;;24.05;15.32;;;12.60;53.50;;;;;;5022130;28;20046;-89
2022/03/30 02:15:07;;;;;;;27.85;15.85;;;12.60;53.60;;;;;;5020230;28;20499;-89
2022/03/30 02:17:34;;;;;;;24.83;15.05;;;12.60;53.30;;;;;;4992904;28;20046;-90
2022/03/30 02:20:02;;;;;;;29.42;15.32;;;12.60;53.60;;;;;;4993842;28;20157;-89
2022/03/30 02:22:29;;;;;;;27.33;16.13;;;12.80;53.50;;;;;;4994663;28;20050;-89
2022/03/30 02:24:56;;;;;;;28.02;16.13;;;12.80;53.70;;;;;;5009699;28;20042;-89
2022/03/30 02:27:23;;;;;;;21.25;15.80;;;12.50;53.40;;;;;;5035831;28;20041;-90
2022/03/30 02:29:53;;;;;;;25.05;15.25;;;12.70;53.90;;;;;;5033767;28;20045;-89
2022/03/30 02:32:22;;;;;;;23.13;15.18;;;12.70;53.80;;;;;;5017577;28;20176;-90
2022/03/30 02:34:49;;;;;;;26.70;15.65;;;12.60;53.80;;;;;;5013448;28;20053;-90
2022/03/30 02:37:17;;;;;;;24.20;16.10;;;12.40;54.00;;;;;;5018005;28;20049;-90
2022/03/30 02:39:45;;;;;;;24.88;14.77;;;12.70;54.00;;;;;;5019076;28;20143;-91
2022/03/30 02:42:12;;;;;;;22.42;14.95;;;12.40;53.80;;;;;;5035697;28;20530;-90
2022/03/30 02:44:39;;;;;;;25.95;15.35;;;12.40;54.00;;;;;;5038339;28;20096;-89
2022/03/30 02:47:06;;;;;;;21.83;14.82;;;12.50;54.10;;;;;;5055159;28;20105;-91
2022/03/30 02:49:34;;;;;;;22.13;15.63;;;12.50;54.00;;;;;;5039507;28;20049;-90
2022/03/30 02:52:01;;;;;;;29.40;15.57;;;12.50;54.20;;;;;;5047902;28;20141;-90
2022/03/30 02:54:28;;;;;;;27.48;15.68;;;12.20;53.90;;;;;;5036451;28;20045;-90
2022/03/30 02:56:55;;;;;;;27.50;15.40;;;12.40;54.20;;;;;;5055775;28;20052;-90
2022/03/30 02:59:22;;;;;;;26.50;14.93;;;12.50;54.10;;;;;;5039599;28;20065;-90
2022/03/30 03:01:49;;;;;;;25.60;15.45;;;12.40;54.00;;;;;;5041365;28;20106;-89
2022/03/30 03:04:17;;;;;;;25.08;14.55;;;12.30;54.00;;;;;;5015901;28;20113;-89
2022/03/30 03:06:43;;;;;;;22.20;13.60;;;12.00;54.00;;;;;;5032491;28;20053;-90
2022/03/30 03:09:11;;;;;;;23.77;15.25;;;11.90;54.10;;;;;;5027559;28;20042;-90
2022/03/30 03:11:38;;;;;;;29.38;14.85;;;11.90;54.00;;;;;;5048859;28;20046;-90
2022/03/30 03:14:07;;;;;;;22.42;14.45;;;12.10;54.30;;;;;;5039284;28;20060;-90
2022/03/30 03:16:34;;;;;;;22.52;14.77;;;11.80;54.20;;;;;;5023289;28;20046;-89
2022/03/30 03:19:02;;;;;;;23.80;15.70;;;11.90;55.10;;;;;;5017215;28;20502;-91
2022/03/30 03:21:29;;;;;;;22.33;14.65;;;11.70;54.30;;;;;;5015654;28;20050;-89
2022/03/30 03:23:56;;;;;;;22.05;14.98;;;11.70;54.60;;;;;;5031745;28;20041;-89
2022/03/30 03:26:23;;;;;;;23.75;14.35;;;11.80;54.70;;;;;;5037825;28;20071;-89
2022/03/30 03:28:50;;;;;;;21.27;14.77;;;11.50;54.70;;;;;;5031444;28;20140;-90
2022/03/30 03:31:17;;;;;;;26.23;15.07;;;11.40;54.80;;;;;;5030206;28;20050;-89
2022/03/30 03:33:45;;;;;;;24.52;16.55;;;11.40;54.90;;;;;;5055442;28;20132;-90
2022/03/30 03:36:12;;;;;;;27.23;14.93;;;11.60;55.10;;;;;;5038543;28;20092;-91
2022/03/30 03:38:38;;;;;;;29.40;16.77;;;11.40;55.10;;;;;;5050259;28;20046;-89
2022/03/30 03:41:06;;;;;;;26.20;14.85;;;11.50;55.40;;;;;;5038833;28;20396;-89
2022/03/30 03:43:34;;;;;;;25.70;15.45;;;11.30;55.30;;;;;;5039058;28;20055;-90
2022/03/30 03:46:01;;;;;;;27.70;16.50;;;11.30;55.40;;;;;;5034844;28;20236;-90
2022/03/30 03:48:28;;;;;;;24.13;15.63;;;11.40;55.50;;;;;;5050391;28;20626;-89
2022/03/30 03:50:55;;;;;;;27.60;15.57;;;11.30;55.60;;;;;;5035936;28;20049;-90
2022/03/30 03:53:22;;;;;;;24.13;15.52;;;11.20;55.50;;;;;;5036641;28;20127;-90
2022/03/30 03:55:50;;;;;;;25.30;15.40;;;11.20;55.50;;;;;;5022291;28;20050;-89
2022/03/30 03:58:17;;;;;;;29.27;17.50;;;11.10;55.50;;;;;;5031895;28;20080;-89
2022/03/30 04:00:44;;;;;;;25.50;15.65;;;11.10;55.50;;;;;;5015875;28;20140;-89
2022/03/30 04:03:11;;;;;;;25.15;15.07;;;11.30;55.60;;;;;;5016183;28;20419;-90
2022/03/30 04:05:40;;;;;;;28.60;15.60;;;11.10;55.60;;;;;;5015941;28;20042;-91
2022/03/30 04:08:08;;;;;;;26.05;15.20;;;11.20;55.50;;;;;;5021792;28;20095;-90
2022/03/30 04:10:35;;;;;;;28.00;15.63;;;11.10;55.50;;;;;;5035802;28;20075;-90
2022/03/30 04:13:06;;;;;;;27.02;15.25;;;10.90;55.50;;;;;;5034831;28;20128;-90
2022/03/30 04:15:34;;;;;;;28.52;16.50;;;11.00;55.60;;;;;;5028904;28;20045;-89
2022/03/30 04:18:03;;;;;;;27.30;15.35;;;10.90;55.90;;;;;;4995082;28;20042;-91
2022/03/30 04:20:31;;;;;;;26.02;14.48;;;10.70;55.80;;;;;;4995982;28;20051;-90
2022/03/30 04:22:59;;;;;;;28.45;14.80;;;10.70;56.00;;;;;;5010332;28;20418;-90
2022/03/30 04:25:27;;;;;;;22.52;13.85;;;10.90;56.00;;;;;;5017738;28;20046;-90
2022/03/30 04:27:54;;;;;;;23.77;14.55;;;10.60;56.10;;;;;;5026950;28;20102;-90
2022/03/30 04:30:22;;;;;;;26.08;15.90;;;10.50;56.10;;;;;;5050759;28;20108;-90
2022/03/30 04:32:49;;;;;;;26.55;15.30;;;10.70;56.30;;;;;;5024122;28;20052;-89
2022/03/30 04:35:18;;;;;;;26.42;15.63;;;10.70;56.40;;;;;;5014732;28;20046;-90
2022/03/30 04:37:45;;;;;;;27.58;15.48;;;10.60;56.50;;;;;;5014125;28;20045;-91
2022/03/30 04:40:13;;;;;;;28.58;14.68;;;10.50;56.80;;;;;;5024411;28;20134;-90
2022/03/30 04:42:40;;;;;;;23.10;14.75;;;10.30;56.40;;;;;;5028601;28;20054;-91
2022/03/30 04:45:07;;;;;;;20.85;14.38;;;10.40;56.60;;;;;;5022952;28;20052;-90
2022/03/30 04:47:34;;;;;;;24.80;15.57;;;10.20;56.50;;;;;;5014471;28;20041;-91
2022/03/30 04:50:03;;;;;;;22.83;14.43;;;10.30;56.70;;;;;;5014812;28;20048;-93
2022/03/30 04:52:32;;;;;;;26.70;16.00;;;10.10;56.60;;;;;;5014511;28;20132;-91
2022/03/30 04:54:59;;;;;;;24.08;15.60;;;10.30;56.90;;;;;;5007617;28;20500;-91
2022/03/30 04:57:26;;;;;;;31.88;16.90;;;10.20;57.10;;;;;;5019521;28;20109;-91
2022/03/30 04:59:53;;;;;;;25.10;14.55;;;10.20;57.30;;;;;;5030807;28;20938;-91
2022/03/30 05:02:20;;;;;;;28.25;15.70;;;10.10;57.30;;;;;;5028687;28;20140;-90
2022/03/30 05:04:48;;;;;;;25.95;15.10;;;10.10;57.30;;;;;;5049287;28;20050;-91
2022/03/30 05:07:15;;;;;;;27.15;14.52;;;9.80;57.00;;;;;;5050806;28;20092;-90
2022/03/30 05:09:42;;;;;;;25.70;15.60;;;10.00;57.40;;;;;;5015178;28;20149;-90
2022/03/30 05:12:09;;;;;;;28.70;15.55;;;10.00;57.40;;;;;;5020446;28;20042;-91
2022/03/30 05:14:36;;;;;;;25.55;15.82;;;9.60;57.20;;;;;;5026627;28;20053;-91
2022/03/30 05:17:04;;;;;;;23.75;13.95;;;9.80;57.40;;;;;;5012828;28;20412;-92
2022/03/30 05:19:32;;;;;;;32.00;17.10;;;9.70;57.30;;;;;;5011900;28;20496;-92
2022/03/30 05:21:58;;;;;;;30.15;16.38;;;9.50;57.40;;;;;;5027758;28;20068;-92
2022/03/30 05:24:26;;;;;;;24.23;15.18;;;9.70;57.70;;;;;;5011246;28;20397;-90
2022/03/30 05:26:53;;;;;;;26.20;14.93;;;9.60;57.70;;;;;;4994888;28;20139;-90
2022/03/30 05:29:20;;;;;;;29.15;14.70;;;9.40;57.90;;;;;;5024039;28;20061;-91
2022/03/30 05:31:48;;;;;;;30.88;16.35;;;9.40;58.00;;;;;;5025428;28;20835;-91
2022/03/30 05:34:35;;;;;;;29.38;15.00;;;9.50;58.10;;;;;;5021846;28;20550;-93
2022/03/30 05:37:03;;;;;;;27.00;15.35;;;9.50;58.20;;;;;;5029395;28;20057;-91
2022/03/30 05:39:31;;;;;;;24.83;15.23;;;9.20;58.20;;;;;;5023434;28;20056;-91
2022/03/30 05:41:58;;;;;;;26.15;15.23;;;9.40;58.40;;;;;;5022678;28;20058;-90
2022/03/30 05:44:25;;;;;;;24.23;15.60;;;9.20;58.60;;;;;;5014600;28;20132;-92
2022/03/30 05:46:52;;;;;;;31.63;16.77;;;9.40;58.90;;;;;;5030486;28;20056;-91
2022/03/30 05:49:19;;;;;;;26.85;15.60;;;9.20;58.90;;;;;;5030462;28;20049;-91
2022/03/30 05:51:46;;;;;;;27.42;17.27;;;9.40;59.00;;;;;;5017724;28;20033;-90
2022/03/30 05:54:13;;;;;;;33.40;16.23;;;9.40;59.20;;;;;;5029413;28;20061;-90
2022/03/30 05:59:43;;;;;;;24.30;13.50;;;9.00;59.20;;;;;;4996025;28;20176;-92
2022/03/30 06:06:19;;;;;;;24.05;14.73;;;9.20;60.00;;;;;;5019553;28;20060;-90
2022/03/30 06:08:46;;;;;;;29.30;16.17;;;9.50;59.20;;;;;;5024034;28;20045;-92
2022/03/30 06:11:13;;;;;;;32.53;16.13;;;9.20;59.30;;;;;;5048897;28;20054;-91
2022/03/30 06:13:43;;;;;;;28.85;16.23;;;9.30;59.40;;;;;;5030424;28;20148;-91
2022/03/30 06:16:10;;;;;;;27.50;14.65;;;9.50;59.50;;;;;;5022082;28;20050;-93
2022/03/30 06:18:38;;;;;;;27.50;15.50;;;9.40;59.40;;;;;;5043153;28;20049;-91
2022/03/30 06:21:06;;;;;;;29.77;17.05;;;9.40;59.30;;;;;;5013724;28;20054;-91
2022/03/30 06:23:32;;;;;;;24.88;15.82;;;9.60;59.60;;;;;;5013602;28;20046;-91
2022/03/30 06:26:01;;;;;;;31.23;16.92;;;9.50;59.50;;;;;;5013836;28;20041;-91
2022/03/30 06:28:29;;;;;;;28.23;16.90;;;9.70;59.50;;;;;;5030294;28;20041;-91
2022/03/30 06:30:57;;;;;;;28.73;15.65;;;9.70;59.40;;;;;;5013896;28;20077;-89
2022/03/30 06:33:24;;;;;;;29.95;16.23;;;9.80;59.50;;;;;;5009876;28;20046;-91
2022/03/30 06:35:52;;;;;;;31.02;15.70;;;9.60;59.40;;;;;;5011170;28;20050;-90
2022/03/30 06:38:19;;;;;;;28.13;17.00;;;9.70;59.40;;;;;;5027746;28;20050;-91
2022/03/30 06:40:47;;;;;;;24.67;16.27;;;9.70;59.40;;;;;;5035155;28;20076;-89
2022/03/30 06:43:15;;;;;;;26.52;15.80;;;10.00;59.40;;;;;;5033268;28;20046;-90
2022/03/30 06:45:43;;;;;;;28.77;16.15;;;10.10;59.40;;;;;;4994643;28;20076;-90
2022/03/30 06:48:13;;;;;;;25.92;16.25;;;9.90;59.00;;;;;;5029489;28;20049;-91
2022/03/30 06:50:40;;;;;;;29.45;17.38;;;10.20;59.10;;;;;;5033481;28;20111;-91
2022/03/30 06:53:09;;;;;;;27.40;16.75;;;10.00;59.10;;;;;;5033884;28;20067;-91
2022/03/30 06:55:38;;;;;;;29.42;16.50;;;10.00;58.70;;;;;;5030283;28;20103;-90
2022/03/30 06:58:09;;;;;;;23.08;15.38;;;10.10;58.60;;;;;;5030286;28;20451;-90
2022/03/30 07:01:16;;;;;;;27.55;15.90;;;10.00;58.40;;;;;;5006669;28;20057;-91
2022/03/30 07:03:43;;;;;;;31.65;16.80;;;10.40;58.40;;;;;;5030011;28;20108;-90
2022/03/30 07:06:10;;;;;;;30.73;17.10;;;10.50;58.50;;;;;;5028854;28;20049;-90
2022/03/30 07:11:23;;;;;;;31.63;17.20;;;10.50;58.30;;;;;;5049320;28;20037;-90
2022/03/30 07:13:52;;;;;;;29.35;15.75;;;10.60;58.30;;;;;;5039596;28;20030;-90
2022/03/30 07:16:19;;;;;;;28.92;17.02;;;10.40;58.10;;;;;;5037059;28;20088;-91
2022/03/30 07:18:46;;;;;;;28.52;16.83;;;10.60;58.10;;;;;;5050096;28;20446;-90
2022/03/30 07:21:14;;;;;;;29.85;16.95;;;10.50;58.10;;;;;;5024932;28;20112;-92
2022/03/30 07:23:41;;;;;;;26.85;15.75;;;10.60;58.10;;;;;;5032310;28;20092;-90
2022/03/30 07:26:08;;;;;;;30.25;16.35;;;10.60;58.30;;;;;;5016918;28;20112;-93
2022/03/30 07:28:38;;;;;;;28.27;16.77;;;10.40;58.30;;;;;;5034469;28;20069;-90
2022/03/30 07:31:05;;;;;;;31.13;17.85;;;10.50;58.40;;;;;;5017597;28;20084;-89
2022/03/30 07:33:33;;;;;;;32.00;19.45;;;10.60;58.40;;;;;;4997517;28;20130;-90
2022/03/30 07:36:00;;;;;;;30.30;16.67;;;10.50;58.40;;;;;;4996801;28;20085;-92
2022/03/30 07:38:28;;;;;;;30.02;18.23;;;10.80;58.50;;;;;;4996554;28;20050;-92
2022/03/30 07:41:00;;;;;;;28.63;17.88;;;10.90;58.40;;;;;;4997350;28;20054;-89
2022/03/30 07:43:27;;;;;;;30.33;18.85;;;11.00;58.20;;;;;;5015406;28;20070;-91
2022/03/30 07:45:54;;;;;;;27.02;17.02;;;10.80;57.90;;;;;;5039692;28;20053;-91
2022/03/30 07:48:21;;;;;;;29.55;17.80;;;11.10;57.90;;;;;;5052917;28;20049;-91
2022/03/30 07:50:49;;;;;;;29.52;17.30;;;11.10;57.60;;;;;;5050098;28;20074;-92
2022/03/30 07:53:16;;;;;;;26.40;16.17;;;10.90;57.20;;;;;;5014471;28;20037;-91
2022/03/30 07:55:43;;;;;;;27.75;16.67;;;11.00;57.20;;;;;;5039862;28;20838;-91
2022/03/30 07:58:11;;;;;;;28.70;16.55;;;11.00;57.00;;;;;;5015057;28;20060;-90
2022/03/30 08:00:38;;;;;;;28.25;17.80;;;11.10;57.00;;;;;;5009285;28;20053;-91
2022/03/30 08:03:06;;;;;;;31.65;15.90;;;11.00;56.90;;;;;;5017572;28;20160;-90
2022/03/30 08:05:34;;;;;;;25.52;15.60;;;11.00;56.90;;;;;;5015120;28;20224;-92
2022/03/30 08:08:01;;;;;;;28.88;17.60;;;11.00;56.90;;;;;;5032817;28;20050;-91
2022/03/30 08:10:29;;;;;;;29.45;17.98;;;11.00;56.80;;;;;;5015610;28;20046;-90
2022/03/30 08:12:57;;;;;;;26.75;16.63;;;11.00;57.00;;;;;;5020919;28;20045;-90
2022/03/30 08:15:24;;;;;;;30.90;17.75;;;11.20;57.10;;;;;;5026946;28;20084;-93
2022/03/30 08:17:52;;;;;;;33.53;17.55;;;11.00;57.00;;;;;;5032543;28;20117;-91
2022/03/30 08:23:11;;;;;;;31.02;17.10;;;11.20;56.80;;;;;;5033113;28;20068;-90
2022/03/30 08:25:39;;;;;;;26.30;15.05;;;11.00;56.80;;;;;;5038433;28;20042;-91
2022/03/30 08:28:06;;;;;;;26.65;15.50;;;11.30;56.90;;;;;;5032520;28;20096;-90
2022/03/30 08:30:35;;;;;;;22.35;14.80;;;11.20;56.90;;;;;;5012456;28;20073;-90
2022/03/30 08:33:03;;;;;;;29.80;14.40;;;11.10;56.90;;;;;;5029484;28;20041;-91
2022/03/30 08:35:32;;;;;;;26.13;14.93;;;11.20;56.80;;;;;;5040514;28;20052;-91
2022/03/30 08:37:59;;;;;;;25.55;15.45;;;11.20;56.80;;;;;;5011666;28;20100;-92
2022/03/30 08:40:26;;;;;;;26.88;14.40;;;11.30;56.90;;;;;;5031467;28;20077;-90
2022/03/30 08:42:55;;;;;;;19.60;13.27;;;11.50;56.80;;;;;;5032341;28;20116;-91
2022/03/30 08:45:22;;;;;;;26.23;14.25;;;11.40;56.70;;;;;;5014243;28;20096;-90
2022/03/30 08:47:49;;;;;;;28.27;16.65;;;11.60;56.60;;;;;;5026951;28;20043;-91
2022/03/30 08:50:17;;;;;;;22.13;14.73;;;11.60;56.50;;;;;;5035178;28;20053;-92
2022/03/30 08:52:49;;;;;;;22.45;14.57;;;11.70;56.00;;;;;;5035806;28;20049;-90
2022/03/30 08:55:17;;;;;;;;;;;12.00;55.70;;;;;;5035425;28;20053;-90
2022/03/30 08:57:44;;;;;;;20.73;12.30;;;11.90;55.80;;;;;;5030797;28;19949;-91
2022/03/30 09:00:34;;;;;;;23.80;14.48;;;11.90;55.60;;;;;;5010763;28;20046;-91
2022/03/30 09:03:03;;;;;;;19.90;13.38;;;12.20;55.50;;;;;;5012160;28;20054;-92
2022/03/30 09:05:35;;;;;;;19.90;12.98;;;12.10;55.30;;;;;;4995890;28;20591;-90
2022/03/30 09:08:15;;;;;;;23.40;14.15;;;12.10;54.90;;;;;;5035875;28;20132;-91
2022/03/30 09:10:45;;;;;;;21.70;13.63;;;12.20;54.30;;;;;;5034749;28;20041;-90
2022/03/30 09:13:17;;;;;;;23.95;14.02;;;12.30;54.40;;;;;;5019026;28;20052;-90
2022/03/30 09:15:47;;;;;;;24.00;14.23;;;12.00;53.80;;;;;;5014139;28;20041;-91
2022/03/30 09:18:15;;;;;;;21.80;14.27;;;12.50;54.10;;;;;;5016912;28;20049;-92
2022/03/30 09:20:48;;;;;;;23.20;14.45;;;12.40;54.20;;;;;;5030574;28;20050;-92
2022/03/30 09:23:25;;;;;;;20.00;13.18;;;12.50;53.80;;;;;;5014444;28;20077;-90
2022/03/30 09:25:53;;;;;;;21.58;14.35;;;12.70;54.00;;;;;;5006902;28;20050;-90
2022/03/30 09:28:21;;;;;;;17.83;12.77;;;12.50;54.00;;;;;;5015270;28;20113;-90
2022/03/30 09:30:49;;;;;;;19.23;12.70;;;12.50;54.20;;;;;;5003870;28;20133;-90
2022/03/30 09:33:18;;;;;;;17.95;11.98;;;12.60;53.40;;;;;;5010012;28;20042;-90
2022/03/30 09:35:46;;;;;;;21.95;13.43;;;12.60;53.00;;;;;;5004476;28;20042;-90
2022/03/30 09:38:19;;;;;;;18.65;12.00;;;12.70;52.90;;;;;;5012217;28;20058;-91
2022/03/30 09:40:55;;;;;;;20.25;11.07;;;12.90;52.70;;;;;;5011472;28;20047;-93
2022/03/30 09:43:28;;;;;;;17.50;11.27;;;12.70;52.50;;;;;;5031320;28;20132;-91
2022/03/30 09:46:12;;;;;;;16.58;10.95;;;12.80;52.40;;;;;;5033215;28;20042;-91
2022/03/30 09:48:44;;;;;;;18.58;12.02;;;12.70;52.80;;;;;;5050752;28;20052;-91
2022/03/30 09:51:11;;;;;;;17.47;10.43;;;12.90;52.90;;;;;;5024123;28;20085;-91
2022/03/30 09:53:38;;;;;;;21.58;12.32;;;12.70;53.00;;;;;;4994553;28;20038;-91
2022/03/30 09:56:08;;;;;;;20.52;11.10;;;12.70;53.20;;;;;;5023535;28;20550;-91
2022/03/30 09:58:39;;;;;;;15.82;10.20;;;12.70;52.60;;;;;;5027051;28;20081;-91
2022/03/30 10:01:08;;;;;;;19.23;10.90;;;12.80;52.50;;;;;;5010597;28;20050;-91
2022/03/30 10:03:44;;;;;;;17.15;10.63;;;13.00;52.90;;;;;;5019272;28;20046;-92
2022/03/30 10:06:13;;;;;;;15.52;10.82;;;12.80;52.50;;;;;;5011698;28;20045;-91
2022/03/30 10:08:45;;;;;;;14.55;10.23;;;12.80;52.40;;;;;;5023770;28;20058;-91
2022/03/30 10:11:15;;;;;;;14.43;9.85;;;12.90;52.40;;;;;;5014418;28;20035;-91
2022/03/30 10:13:45;;;;;;;15.43;10.77;;;13.10;52.40;;;;;;5028119;28;20073;-91
2022/03/30 10:16:32;;;;;;;18.13;9.32;;;12.90;52.20;;;;;;5024547;28;20042;-92
2022/03/30 10:19:00;;;;;;;15.88;11.32;;;13.00;52.60;;;;;;5010041;28;20050;-90
2022/03/30 10:22:02;;;;;;;18.23;11.00;;;13.00;52.40;;;;;;5010852;28;20520;-91
2022/03/30 10:29:11;;;;;;;13.00;9.43;;;13.00;51.80;;;;;;5007648;28;20062;-92
2022/03/30 10:35:48;;;;;;;13.35;8.93;;;13.20;51.90;;;;;;5029778;28;20030;-92
2022/03/30 10:38:17;;;;;;;15.18;10.00;;;13.20;51.60;;;;;;5032093;28;20038;-90
2022/03/30 10:40:47;;;;;;;15.50;9.27;;;13.20;51.80;;;;;;5020117;28;20179;-90
2022/03/30 10:43:25;;;;;;;17.15;9.27;;;13.10;51.80;;;;;;5031908;28;20048;-91
2022/03/30 10:46:02;;;;;;;16.25;10.52;;;13.30;51.60;;;;;;5013895;28;20050;-91
2022/03/30 10:48:29;;;;;;;14.95;9.57;;;13.40;51.40;;;;;;5012996;28;20034;-92
2022/03/30 10:51:06;;;;;;;16.02;10.05;;;13.50;51.30;;;;;;5017774;28;20049;-90
2022/03/30 10:53:38;;;;;;;14.38;9.40;;;13.50;51.20;;;;;;5031674;28;20049;-91
2022/03/30 10:56:14;;;;;;;10.87;8.90;;;13.50;51.30;;;;;;5047999;28;20053;-90
2022/03/30 10:58:55;;;;;;;14.65;9.32;;;13.90;51.40;;;;;;5037493;28;20050;-91
2022/03/30 11:01:27;;;;;;;12.63;9.70;;;13.70;50.40;;;;;;5037357;28;20045;-91
2022/03/30 11:03:59;;;;;;;16.98;10.05;;;13.80;50.80;;;;;;5053580;28;20075;-90
2022/03/30 11:06:27;;;;;;;16.55;10.90;;;13.80;50.90;;;;;;5015483;28;20097;-91
2022/03/30 11:08:59;;;;;;;15.23;10.15;;;13.90;50.90;;;;;;5025327;28;20102;-91
2022/03/30 11:11:42;;;;;;;15.80;10.23;;;13.90;50.80;;;;;;5020789;28;20095;-90
2022/03/30 11:14:22;;;;;;;15.38;10.48;;;13.90;50.30;;;;;;5027997;28;20042;-91
2022/03/30 11:16:50;;;;;;;13.07;9.85;;;14.30;50.60;;;;;;5021080;28;20138;-90
2022/03/30 11:19:17;;;;;;;17.52;10.82;;;14.10;50.40;;;;;;5047048;28;20068;-92
2022/03/30 11:21:55;;;;;;;15.05;9.85;;;14.10;50.20;;;;;;5036552;28;20050;-91
2022/03/30 11:24:25;;;;;;;18.10;10.38;;;14.40;49.60;;;;;;5053609;28;20053;-89
2022/03/30 11:26:52;;;;;;;16.23;10.27;;;14.30;49.80;;;;;;5022913;28;20520;-90
2022/03/30 11:29:42;;;;;;;17.13;11.20;;;14.50;50.10;;;;;;5023356;28;20041;-92
2022/03/30 11:32:24;;;;;;;15.27;10.27;;;14.40;49.50;;;;;;5035907;28;20042;-91
2022/03/30 11:35:01;;;;;;;13.07;10.45;;;14.40;49.30;;;;;;5052609;28;20573;-90
2022/03/30 11:37:35;;;;;;;19.48;10.32;;;14.50;49.70;;;;;;5053402;28;20049;-91
2022/03/30 11:40:07;;;;;;;14.93;10.85;;;14.70;49.60;;;;;;5036365;28;20045;-90
2022/03/30 11:42:43;;;;;;;15.63;9.98;;;14.60;50.00;;;;;;5035839;28;20139;-91
2022/03/30 11:45:13;;;;;;;16.67;10.70;;;14.70;49.40;;;;;;5034908;28;20053;-91
2022/03/30 11:47:54;;;;;;;17.65;11.23;;;15.00;49.00;;;;;;5052670;28;20076;-92
2022/03/30 11:50:40;;;;;;;14.77;10.35;;;14.90;48.60;;;;;;5036416;28;20664;-90
2022/03/30 11:53:21;;;;;;;14.40;10.13;;;15.00;48.20;;;;;;5034550;28;20127;-91
2022/03/30 11:55:53;;;;;;;17.85;11.25;;;15.10;48.70;;;;;;5018178;28;20639;-91
2022/03/30 11:58:23;;;;;;;17.57;11.43;;;15.20;48.70;;;;;;5049817;28;20042;-92
2022/03/30 12:01:12;;;;;;;18.95;11.43;;;15.50;48.50;;;;;;5019464;28;20050;-90
2022/03/30 12:03:40;;;;;;;14.48;10.55;;;15.40;48.60;;;;;;5033260;28;20058;-91
2022/03/30 12:06:10;;;;;;;15.20;9.73;;;15.50;48.20;;;;;;5037046;28;20049;-91
2022/03/30 12:08:51;;;;;;;14.55;9.15;;;15.60;47.80;;;;;;5034159;28;20050;-92
2022/03/30 12:11:22;;;;;;;18.30;11.38;;;15.90;47.70;;;;;;5051221;28;20049;-90
2022/03/30 12:13:55;;;;;;;18.43;10.90;;;15.70;47.20;;;;;;5042811;28;20041;-93
2022/03/30 12:16:26;;;;;;;17.92;11.18;;;15.70;47.00;;;;;;5023279;28;20057;-90
2022/03/30 12:19:01;;;;;;;14.75;10.57;;;16.00;47.20;;;;;;5031975;28;20046;-92
2022/03/30 12:21:34;;;;;;;17.70;11.85;;;16.00;47.50;;;;;;5012515;28;20114;-91
2022/03/30 12:24:04;;;;;;;16.85;11.23;;;16.00;47.10;;;;;;5032808;28;20050;-90
2022/03/30 12:26:51;;;;;;;17.08;11.82;;;15.80;46.80;;;;;;5035566;28;20069;-91
2022/03/30 12:29:19;;;;;;;20.00;11.20;;;15.80;46.70;;;;;;5051657;28;20038;-92
2022/03/30 12:31:57;;;;;;;15.63;10.90;;;15.80;47.00;;;;;;5036401;28;20049;-92
2022/03/30 12:34:25;;;;;;;17.42;11.90;;;15.80;46.10;;;;;;5038833;28;20046;-90
2022/03/30 12:36:58;;;;;;;15.75;11.15;;;16.00;46.90;;;;;;5035277;28;20049;-91
2022/03/30 12:39:28;;;;;;;16.35;10.38;;;15.80;46.40;;;;;;5031301;28;20128;-91
2022/03/30 12:41:58;;;;;;;18.23;11.48;;;15.90;46.40;;;;;;5030652;28;20042;-90
2022/03/30 12:44:34;;;;;;;17.77;11.10;;;16.10;46.20;;;;;;5012757;28;20058;-94
2022/03/30 12:47:02;;;;;;;11.82;9.75;;;15.90;45.80;;;;;;5024924;28;20492;-90
2022/03/30 12:49:37;;;;;;;16.13;11.35;;;16.00;46.20;;;;;;5031736;28;20145;-91
2022/03/30 12:52:14;;;;;;;15.80;10.50;;;16.30;45.50;;;;;;5012491;28;20046;-91
2022/03/30 12:54:45;;;;;;;16.17;10.30;;;16.20;45.90;;;;;;4999525;28;20047;-93
2022/03/30 12:57:25;;;;;;;16.70;10.65;;;16.20;46.10;;;;;;5036141;28;20053;-92
2022/03/30 12:59:52;;;;;;;15.05;10.80;;;16.40;46.40;;;;;;5031941;28;20073;-91
2022/03/30 13:02:24;;;;;;;16.77;10.60;;;16.50;46.40;;;;;;5020268;28;20049;-91
2022/03/30 13:04:57;;;;;;;15.60;11.40;;;16.60;46.50;;;;;;5014644;28;20141;-91